sensor_id;sensor_type;location;lat;lon;timestamp;P1;durP1;ratioP1;P2;durP2;ratioP2
2320;SDS011;15376;48.540;9.268;2023-01-06T00:00:28;5.93;;;5.20;;
2320;SDS011;15376;48.540;9.268;2023-01-06T00:02:53;5.10;;;4.40;;
2320;SDS011;15376;48.540;9.268;2023-01-06T00:05:18;8.83;;;4.60;;
2320;SDS011;15376;48.540;9.268;2023-01-06T00:07:44;5.63;;;3.93;;
2320;SDS011;15376;48.540;9.268;2023-01-06T00:10:12;5.77;;;4.17;;
2320;SDS011;15376;48.540;9.268;2023-01-06T00:12:37;6.43;;;5.80;;
2320;SDS011;15376;48.540;9.268;2023-01-06T00:15:03;6.00;;;5.03;;
2320;SDS011;15376;48.540;9.268;2023-01-06T00:17:29;5.03;;;4.53;;
2320;SDS011;15376;48.540;9.268;2023-01-06T00:19:54;5.67;;;5.20;;
2320;SDS011;15376;48.540;9.268;2023-01-06T00:22:20;5.43;;;4.50;;
2320;SDS011;15376;48.540;9.268;2023-01-06T00:24:46;5.13;;;4.40;;
2320;SDS011;15376;48.540;9.268;2023-01-06T00:27:11;6.00;;;4.33;;
2320;SDS011;15376;48.540;9.268;2023-01-06T00:29:36;4.37;;;3.60;;
2320;SDS011;15376;48.540;9.268;2023-01-06T00:32:02;4.57;;;4.10;;
2320;SDS011;15376;48.540;9.268;2023-01-06T00:34:27;3.83;;;3.43;;
2320;SDS011;15376;48.540;9.268;2023-01-06T00:36:53;4.53;;;3.67;;
2320;SDS011;15376;48.540;9.268;2023-01-06T00:39:19;4.83;;;3.40;;
2320;SDS011;15376;48.540;9.268;2023-01-06T00:41:44;4.30;;;3.40;;
2320;SDS011;15376;48.540;9.268;2023-01-06T00:44:29;4.20;;;3.80;;
2320;SDS011;15376;48.540;9.268;2023-01-06T00:46:58;4.57;;;3.57;;
2320;SDS011;15376;48.540;9.268;2023-01-06T00:49:23;4.73;;;4.33;;
2320;SDS011;15376;48.540;9.268;2023-01-06T00:51:49;4.87;;;3.93;;
2320;SDS011;15376;48.540;9.268;2023-01-06T00:54:15;4.03;;;3.70;;
2320;SDS011;15376;48.540;9.268;2023-01-06T00:56:42;5.93;;;3.80;;
2320;SDS011;15376;48.540;9.268;2023-01-06T00:59:12;4.07;;;3.77;;
2320;SDS011;15376;48.540;9.268;2023-01-06T01:01:39;3.73;;;3.43;;
2320;SDS011;15376;48.540;9.268;2023-01-06T01:04:06;4.37;;;3.97;;
2320;SDS011;15376;48.540;9.268;2023-01-06T01:06:32;4.17;;;3.47;;
2320;SDS011;15376;48.540;9.268;2023-01-06T01:08:57;4.77;;;4.37;;
2320;SDS011;15376;48.540;9.268;2023-01-06T01:11:24;4.00;;;3.70;;
2320;SDS011;15376;48.540;9.268;2023-01-06T01:14:08;3.80;;;3.50;;
2320;SDS011;15376;48.540;9.268;2023-01-06T01:16:35;4.73;;;4.33;;
2320;SDS011;15376;48.540;9.268;2023-01-06T01:19:00;3.90;;;3.50;;
2320;SDS011;15376;48.540;9.268;2023-01-06T01:21:26;5.07;;;4.57;;
2320;SDS011;15376;48.540;9.268;2023-01-06T01:23:51;4.13;;;3.73;;
2320;SDS011;15376;48.540;9.268;2023-01-06T01:26:16;4.20;;;3.80;;
2320;SDS011;15376;48.540;9.268;2023-01-06T01:28:42;4.07;;;3.77;;
2320;SDS011;15376;48.540;9.268;2023-01-06T01:31:08;3.17;;;2.90;;
2320;SDS011;15376;48.540;9.268;2023-01-06T01:33:34;3.00;;;2.80;;
2320;SDS011;15376;48.540;9.268;2023-01-06T01:36:09;3.13;;;2.83;;
2320;SDS011;15376;48.540;9.268;2023-01-06T01:38:36;3.13;;;2.87;;
2320;SDS011;15376;48.540;9.268;2023-01-06T01:41:02;3.03;;;2.63;;
2320;SDS011;15376;48.540;9.268;2023-01-06T01:43:44;2.93;;;2.67;;
2320;SDS011;15376;48.540;9.268;2023-01-06T01:46:10;3.23;;;2.93;;
2320;SDS011;15376;48.540;9.268;2023-01-06T01:48:37;3.37;;;3.10;;
2320;SDS011;15376;48.540;9.268;2023-01-06T01:51:04;2.80;;;2.57;;
2320;SDS011;15376;48.540;9.268;2023-01-06T01:53:39;2.70;;;2.50;;
2320;SDS011;15376;48.540;9.268;2023-01-06T01:56:08;3.23;;;3.03;;
2320;SDS011;15376;48.540;9.268;2023-01-06T01:58:52;3.33;;;3.03;;
2320;SDS011;15376;48.540;9.268;2023-01-06T02:01:20;3.60;;;3.30;;
2320;SDS011;15376;48.540;9.268;2023-01-06T02:03:46;3.20;;;2.90;;
2320;SDS011;15376;48.540;9.268;2023-01-06T02:06:14;3.27;;;2.97;;
2320;SDS011;15376;48.540;9.268;2023-01-06T02:11:42;2.77;;;2.57;;
2320;SDS011;15376;48.540;9.268;2023-01-06T02:14:12;2.83;;;2.63;;
2320;SDS011;15376;48.540;9.268;2023-01-06T02:43:54;3.30;;;3.00;;
2320;SDS011;15376;48.540;9.268;2023-01-06T02:49:11;2.70;;;2.50;;
2320;SDS011;15376;48.540;9.268;2023-01-06T02:51:49;3.00;;;2.50;;
2320;SDS011;15376;48.540;9.268;2023-01-06T02:54:23;3.20;;;2.90;;
2320;SDS011;15376;48.540;9.268;2023-01-06T02:59:49;3.37;;;3.07;;
2320;SDS011;15376;48.540;9.268;2023-01-06T03:02:24;2.37;;;2.17;;
2320;SDS011;15376;48.540;9.268;2023-01-06T03:04:51;2.33;;;2.00;;
2320;SDS011;15376;48.540;9.268;2023-01-06T03:07:19;5.20;;;2.00;;
2320;SDS011;15376;48.540;9.268;2023-01-06T03:09:47;2.43;;;2.23;;
2320;SDS011;15376;48.540;9.268;2023-01-06T03:12:19;2.83;;;2.63;;
2320;SDS011;15376;48.540;9.268;2023-01-06T03:14:51;2.47;;;2.27;;
2320;SDS011;15376;48.540;9.268;2023-01-06T03:17:20;2.77;;;2.53;;
2320;SDS011;15376;48.540;9.268;2023-01-06T03:19:46;2.93;;;2.73;;
2320;SDS011;15376;48.540;9.268;2023-01-06T03:22:12;2.90;;;2.70;;
2320;SDS011;15376;48.540;9.268;2023-01-06T03:24:39;2.40;;;2.20;;
2320;SDS011;15376;48.540;9.268;2023-01-06T03:27:06;2.37;;;2.20;;
2320;SDS011;15376;48.540;9.268;2023-01-06T03:29:33;3.73;;;2.47;;
2320;SDS011;15376;48.540;9.268;2023-01-06T03:34:54;2.43;;;2.30;;
2320;SDS011;15376;48.540;9.268;2023-01-06T03:40:27;2.40;;;2.27;;
2320;SDS011;15376;48.540;9.268;2023-01-06T03:43:11;2.93;;;2.73;;
2320;SDS011;15376;48.540;9.268;2023-01-06T03:46:15;2.43;;;2.23;;
2320;SDS011;15376;48.540;9.268;2023-01-06T03:52:06;2.40;;;2.20;;
2320;SDS011;15376;48.540;9.268;2023-01-06T03:54:46;2.60;;;2.40;;
2320;SDS011;15376;48.540;9.268;2023-01-06T03:57:35;3.70;;;2.30;;
2320;SDS011;15376;48.540;9.268;2023-01-06T04:00:05;2.80;;;2.30;;
2320;SDS011;15376;48.540;9.268;2023-01-06T04:02:36;5.00;;;2.70;;
2320;SDS011;15376;48.540;9.268;2023-01-06T04:07:32;2.77;;;2.57;;
2320;SDS011;15376;48.540;9.268;2023-01-06T04:09:57;3.17;;;2.87;;
2320;SDS011;15376;48.540;9.268;2023-01-06T04:12:23;2.73;;;2.53;;
2320;SDS011;15376;48.540;9.268;2023-01-06T04:17:40;4.00;;;2.90;;
2320;SDS011;15376;48.540;9.268;2023-01-06T04:20:06;3.00;;;2.70;;
2320;SDS011;15376;48.540;9.268;2023-01-06T04:22:34;3.67;;;2.63;;
2320;SDS011;15376;48.540;9.268;2023-01-06T04:24:59;4.40;;;3.90;;
2320;SDS011;15376;48.540;9.268;2023-01-06T04:27:25;4.27;;;3.23;;
2320;SDS011;15376;48.540;9.268;2023-01-06T04:29:51;3.50;;;3.20;;
2320;SDS011;15376;48.540;9.268;2023-01-06T04:32:16;6.00;;;3.30;;
2320;SDS011;15376;48.540;9.268;2023-01-06T04:34:41;4.47;;;2.97;;
2320;SDS011;15376;48.540;9.268;2023-01-06T04:37:07;3.93;;;3.63;;
2320;SDS011;15376;48.540;9.268;2023-01-06T04:39:32;3.80;;;3.13;;
2320;SDS011;15376;48.540;9.268;2023-01-06T04:41:57;3.80;;;3.50;;
2320;SDS011;15376;48.540;9.268;2023-01-06T04:44:23;2.93;;;2.73;;
2320;SDS011;15376;48.540;9.268;2023-01-06T04:46:49;4.13;;;2.90;;
2320;SDS011;15376;48.540;9.268;2023-01-06T04:49:14;3.33;;;2.40;;
2320;SDS011;15376;48.540;9.268;2023-01-06T04:51:40;2.90;;;2.70;;
2320;SDS011;15376;48.540;9.268;2023-01-06T04:54:05;4.40;;;2.97;;
2320;SDS011;15376;48.540;9.268;2023-01-06T04:56:30;2.83;;;2.60;;
2320;SDS011;15376;48.540;9.268;2023-01-06T04:58:56;2.20;;;2.10;;
2320;SDS011;15376;48.540;9.268;2023-01-06T05:01:22;2.70;;;2.50;;
2320;SDS011;15376;48.540;9.268;2023-01-06T05:03:49;2.33;;;2.13;;
2320;SDS011;15376;48.540;9.268;2023-01-06T05:06:15;2.50;;;2.30;;
2320;SDS011;15376;48.540;9.268;2023-01-06T05:08:41;2.60;;;2.40;;
2320;SDS011;15376;48.540;9.268;2023-01-06T05:11:15;2.77;;;2.57;;
2320;SDS011;15376;48.540;9.268;2023-01-06T05:13:47;2.60;;;2.40;;
2320;SDS011;15376;48.540;9.268;2023-01-06T05:16:14;3.23;;;2.90;;
2320;SDS011;15376;48.540;9.268;2023-01-06T05:18:41;3.67;;;3.17;;
2320;SDS011;15376;48.540;9.268;2023-01-06T05:21:07;3.50;;;2.70;;
2320;SDS011;15376;48.540;9.268;2023-01-06T05:23:32;2.37;;;2.27;;
2320;SDS011;15376;48.540;9.268;2023-01-06T05:25:58;2.50;;;2.30;;
2320;SDS011;15376;48.540;9.268;2023-01-06T05:28:23;5.63;;;2.80;;
2320;SDS011;15376;48.540;9.268;2023-01-06T05:30:49;2.87;;;2.27;;
2320;SDS011;15376;48.540;9.268;2023-01-06T05:33:14;2.40;;;2.20;;
2320;SDS011;15376;48.540;9.268;2023-01-06T05:35:39;2.80;;;2.60;;
2320;SDS011;15376;48.540;9.268;2023-01-06T05:38:05;2.50;;;2.23;;
2320;SDS011;15376;48.540;9.268;2023-01-06T05:40:30;2.80;;;2.60;;
2320;SDS011;15376;48.540;9.268;2023-01-06T05:42:56;3.43;;;2.90;;
2320;SDS011;15376;48.540;9.268;2023-01-06T05:45:23;2.77;;;2.57;;
2320;SDS011;15376;48.540;9.268;2023-01-06T05:47:49;2.70;;;2.50;;
2320;SDS011;15376;48.540;9.268;2023-01-06T05:50:15;2.23;;;2.13;;
2320;SDS011;15376;48.540;9.268;2023-01-06T05:52:41;2.73;;;2.53;;
2320;SDS011;15376;48.540;9.268;2023-01-06T05:55:06;2.97;;;2.77;;
2320;SDS011;15376;48.540;9.268;2023-01-06T05:57:33;2.53;;;2.33;;
2320;SDS011;15376;48.540;9.268;2023-01-06T05:59:59;6.40;;;3.17;;
2320;SDS011;15376;48.540;9.268;2023-01-06T06:02:24;3.70;;;2.90;;
2320;SDS011;15376;48.540;9.268;2023-01-06T06:04:50;4.00;;;3.60;;
2320;SDS011;15376;48.540;9.268;2023-01-06T06:07:15;3.53;;;3.30;;
2320;SDS011;15376;48.540;9.268;2023-01-06T06:09:40;3.00;;;2.80;;
2320;SDS011;15376;48.540;9.268;2023-01-06T06:12:06;3.27;;;2.90;;
2320;SDS011;15376;48.540;9.268;2023-01-06T06:14:31;5.13;;;3.57;;
2320;SDS011;15376;48.540;9.268;2023-01-06T06:16:57;3.70;;;3.40;;
2320;SDS011;15376;48.540;9.268;2023-01-06T06:19:22;3.73;;;3.43;;
2320;SDS011;15376;48.540;9.268;2023-01-06T06:21:48;3.40;;;3.10;;
2320;SDS011;15376;48.540;9.268;2023-01-06T06:24:13;3.60;;;3.30;;
2320;SDS011;15376;48.540;9.268;2023-01-06T06:26:38;3.07;;;2.87;;
2320;SDS011;15376;48.540;9.268;2023-01-06T06:29:04;4.10;;;3.20;;
2320;SDS011;15376;48.540;9.268;2023-01-06T06:31:31;3.20;;;2.90;;
2320;SDS011;15376;48.540;9.268;2023-01-06T06:33:58;3.33;;;2.60;;
2320;SDS011;15376;48.540;9.268;2023-01-06T06:36:25;2.80;;;2.60;;
2320;SDS011;15376;48.540;9.268;2023-01-06T06:38:51;3.90;;;3.57;;
2320;SDS011;15376;48.540;9.268;2023-01-06T06:41:18;3.10;;;2.80;;
2320;SDS011;15376;48.540;9.268;2023-01-06T06:43:44;3.33;;;3.13;;
2320;SDS011;15376;48.540;9.268;2023-01-06T06:46:10;3.13;;;2.90;;
2320;SDS011;15376;48.540;9.268;2023-01-06T06:48:36;3.37;;;3.07;;
2320;SDS011;15376;48.540;9.268;2023-01-06T06:51:03;4.17;;;3.80;;
2320;SDS011;15376;48.540;9.268;2023-01-06T06:53:31;3.00;;;2.80;;
2320;SDS011;15376;48.540;9.268;2023-01-06T06:55:57;3.27;;;3.07;;
2320;SDS011;15376;48.540;9.268;2023-01-06T06:58:23;3.10;;;2.90;;
2320;SDS011;15376;48.540;9.268;2023-01-06T07:00:48;4.33;;;3.70;;
2320;SDS011;15376;48.540;9.268;2023-01-06T07:03:14;3.67;;;3.37;;
2320;SDS011;15376;48.540;9.268;2023-01-06T07:05:42;3.83;;;3.53;;
2320;SDS011;15376;48.540;9.268;2023-01-06T07:08:10;5.23;;;3.63;;
2320;SDS011;15376;48.540;9.268;2023-01-06T07:10:36;4.57;;;4.03;;
2320;SDS011;15376;48.540;9.268;2023-01-06T07:13:01;5.40;;;3.40;;
2320;SDS011;15376;48.540;9.268;2023-01-06T07:15:27;3.63;;;3.30;;
2320;SDS011;15376;48.540;9.268;2023-01-06T07:17:52;3.70;;;3.50;;
2320;SDS011;15376;48.540;9.268;2023-01-06T07:20:18;27.53;;;19.23;;
2320;SDS011;15376;48.540;9.268;2023-01-06T07:22:44;6.47;;;5.60;;
2320;SDS011;15376;48.540;9.268;2023-01-06T07:25:10;5.53;;;4.97;;
2320;SDS011;15376;48.540;9.268;2023-01-06T07:27:35;4.27;;;3.90;;
2320;SDS011;15376;48.540;9.268;2023-01-06T07:30:02;3.10;;;2.90;;
2320;SDS011;15376;48.540;9.268;2023-01-06T07:32:29;3.77;;;3.47;;
2320;SDS011;15376;48.540;9.268;2023-01-06T07:34:54;3.40;;;3.20;;
2320;SDS011;15376;48.540;9.268;2023-01-06T07:37:19;11.10;;;10.07;;
2320;SDS011;15376;48.540;9.268;2023-01-06T07:39:45;3.00;;;2.80;;
2320;SDS011;15376;48.540;9.268;2023-01-06T07:42:10;3.37;;;3.07;;
2320;SDS011;15376;48.540;9.268;2023-01-06T07:44:35;3.43;;;3.23;;
2320;SDS011;15376;48.540;9.268;2023-01-06T07:47:01;3.80;;;3.50;;
2320;SDS011;15376;48.540;9.268;2023-01-06T07:49:26;4.43;;;4.03;;
2320;SDS011;15376;48.540;9.268;2023-01-06T07:51:52;7.10;;;5.47;;
2320;SDS011;15376;48.540;9.268;2023-01-06T07:54:17;5.87;;;5.27;;
2320;SDS011;15376;48.540;9.268;2023-01-06T07:56:42;8.27;;;4.60;;
2320;SDS011;15376;48.540;9.268;2023-01-06T07:59:08;4.10;;;3.80;;
2320;SDS011;15376;48.540;9.268;2023-01-06T08:01:34;4.30;;;3.13;;
2320;SDS011;15376;48.540;9.268;2023-01-06T08:04:00;3.57;;;3.37;;
2320;SDS011;15376;48.540;9.268;2023-01-06T08:06:25;3.03;;;2.83;;
2320;SDS011;15376;48.540;9.268;2023-01-06T08:08:51;3.50;;;3.20;;
2320;SDS011;15376;48.540;9.268;2023-01-06T08:11:16;6.73;;;5.13;;
2320;SDS011;15376;48.540;9.268;2023-01-06T08:13:41;7.87;;;6.67;;
2320;SDS011;15376;48.540;9.268;2023-01-06T08:16:07;4.97;;;4.37;;
2320;SDS011;15376;48.540;9.268;2023-01-06T08:18:34;4.13;;;3.73;;
2320;SDS011;15376;48.540;9.268;2023-01-06T08:21:04;4.97;;;3.93;;
2320;SDS011;15376;48.540;9.268;2023-01-06T08:23:32;4.20;;;3.80;;
2320;SDS011;15376;48.540;9.268;2023-01-06T08:26:02;4.00;;;3.70;;
2320;SDS011;15376;48.540;9.268;2023-01-06T08:28:41;5.60;;;4.20;;
2320;SDS011;15376;48.540;9.268;2023-01-06T08:31:09;4.47;;;3.87;;
2320;SDS011;15376;48.540;9.268;2023-01-06T08:33:35;5.00;;;3.40;;
2320;SDS011;15376;48.540;9.268;2023-01-06T08:36:02;6.33;;;3.60;;
2320;SDS011;15376;48.540;9.268;2023-01-06T08:38:29;3.30;;;3.00;;
2320;SDS011;15376;48.540;9.268;2023-01-06T08:40:58;4.00;;;3.70;;
2320;SDS011;15376;48.540;9.268;2023-01-06T08:43:24;3.47;;;3.17;;
2320;SDS011;15376;48.540;9.268;2023-01-06T08:45:50;3.70;;;3.40;;
2320;SDS011;15376;48.540;9.268;2023-01-06T08:48:15;3.77;;;3.47;;
2320;SDS011;15376;48.540;9.268;2023-01-06T08:50:41;4.30;;;3.90;;
2320;SDS011;15376;48.540;9.268;2023-01-06T08:53:07;3.50;;;3.30;;
2320;SDS011;15376;48.540;9.268;2023-01-06T08:55:36;5.43;;;4.00;;
2320;SDS011;15376;48.540;9.268;2023-01-06T08:58:03;4.37;;;3.80;;
2320;SDS011;15376;48.540;9.268;2023-01-06T09:00:28;4.37;;;3.20;;
2320;SDS011;15376;48.540;9.268;2023-01-06T09:02:53;3.67;;;3.37;;
2320;SDS011;15376;48.540;9.268;2023-01-06T09:05:19;3.43;;;3.13;;
2320;SDS011;15376;48.540;9.268;2023-01-06T09:07:44;3.43;;;3.10;;
2320;SDS011;15376;48.540;9.268;2023-01-06T09:10:09;4.67;;;4.10;;
2320;SDS011;15376;48.540;9.268;2023-01-06T09:12:36;3.13;;;2.93;;
2320;SDS011;15376;48.540;9.268;2023-01-06T09:15:02;4.53;;;3.23;;
2320;SDS011;15376;48.540;9.268;2023-01-06T09:17:28;6.47;;;3.87;;
2320;SDS011;15376;48.540;9.268;2023-01-06T09:19:53;3.07;;;2.87;;
2320;SDS011;15376;48.540;9.268;2023-01-06T09:22:19;3.07;;;2.87;;
2320;SDS011;15376;48.540;9.268;2023-01-06T09:24:44;3.40;;;3.10;;
2320;SDS011;15376;48.540;9.268;2023-01-06T09:27:09;2.70;;;2.50;;
2320;SDS011;15376;48.540;9.268;2023-01-06T09:29:35;3.10;;;2.63;;
2320;SDS011;15376;48.540;9.268;2023-01-06T09:32:00;3.17;;;2.60;;
2320;SDS011;15376;48.540;9.268;2023-01-06T09:34:27;2.50;;;2.30;;
2320;SDS011;15376;48.540;9.268;2023-01-06T09:36:52;2.43;;;2.20;;
2320;SDS011;15376;48.540;9.268;2023-01-06T09:39:18;2.90;;;2.70;;
2320;SDS011;15376;48.540;9.268;2023-01-06T09:41:53;3.07;;;2.87;;
2320;SDS011;15376;48.540;9.268;2023-01-06T09:47:13;5.17;;;3.73;;
2320;SDS011;15376;48.540;9.268;2023-01-06T09:49:44;5.23;;;3.57;;
2320;SDS011;15376;48.540;9.268;2023-01-06T09:55:00;3.40;;;3.03;;
2320;SDS011;15376;48.540;9.268;2023-01-06T09:57:39;3.00;;;2.53;;
2320;SDS011;15376;48.540;9.268;2023-01-06T10:02:53;3.53;;;3.00;;
2320;SDS011;15376;48.540;9.268;2023-01-06T10:08:24;1.97;;;1.70;;
2320;SDS011;15376;48.540;9.268;2023-01-06T10:11:12;5.50;;;1.70;;
2320;SDS011;15376;48.540;9.268;2023-01-06T10:14:01;2.03;;;1.93;;
2320;SDS011;15376;48.540;9.268;2023-01-06T10:21:49;1.70;;;1.60;;
2320;SDS011;15376;48.540;9.268;2023-01-06T10:24:32;1.90;;;1.80;;
2320;SDS011;15376;48.540;9.268;2023-01-06T10:27:35;4.10;;;2.30;;
2320;SDS011;15376;48.540;9.268;2023-01-06T10:30:05;2.03;;;1.93;;
2320;SDS011;15376;48.540;9.268;2023-01-06T10:32:41;1.90;;;1.80;;
2320;SDS011;15376;48.540;9.268;2023-01-06T10:35:12;2.03;;;1.70;;
2320;SDS011;15376;48.540;9.268;2023-01-06T10:37:40;2.67;;;2.47;;
2320;SDS011;15376;48.540;9.268;2023-01-06T10:42:49;2.03;;;1.87;;
2320;SDS011;15376;48.540;9.268;2023-01-06T10:45:19;2.43;;;1.90;;
2320;SDS011;15376;48.540;9.268;2023-01-06T10:47:46;4.57;;;2.10;;
2320;SDS011;15376;48.540;9.268;2023-01-06T10:50:13;1.40;;;1.30;;
2320;SDS011;15376;48.540;9.268;2023-01-06T10:52:39;3.07;;;2.47;;
2320;SDS011;15376;48.540;9.268;2023-01-06T10:55:05;1.83;;;1.73;;
2320;SDS011;15376;48.540;9.268;2023-01-06T10:57:37;2.80;;;2.60;;
2320;SDS011;15376;48.540;9.268;2023-01-06T11:02:48;1.70;;;1.47;;
2320;SDS011;15376;48.540;9.268;2023-01-06T11:05:16;1.97;;;1.63;;
2320;SDS011;15376;48.540;9.268;2023-01-06T11:07:55;1.70;;;1.60;;
2320;SDS011;15376;48.540;9.268;2023-01-06T11:10:31;1.60;;;1.50;;
2320;SDS011;15376;48.540;9.268;2023-01-06T11:13:02;1.70;;;1.60;;
2320;SDS011;15376;48.540;9.268;2023-01-06T11:15:39;2.03;;;1.83;;
2320;SDS011;15376;48.540;9.268;2023-01-06T11:18:16;1.60;;;1.30;;
2320;SDS011;15376;48.540;9.268;2023-01-06T11:21:12;2.13;;;2.00;;
2320;SDS011;15376;48.540;9.268;2023-01-06T11:23:41;1.40;;;1.20;;
2320;SDS011;15376;48.540;9.268;2023-01-06T11:28:35;2.00;;;1.83;;
2320;SDS011;15376;48.540;9.268;2023-01-06T11:31:02;2.80;;;1.50;;
2320;SDS011;15376;48.540;9.268;2023-01-06T11:36:20;1.30;;;1.20;;
2320;SDS011;15376;48.540;9.268;2023-01-06T11:38:57;1.20;;;1.10;;
2320;SDS011;15376;48.540;9.268;2023-01-06T11:41:27;1.33;;;1.23;;
2320;SDS011;15376;48.540;9.268;2023-01-06T11:44:02;1.40;;;1.30;;
2320;SDS011;15376;48.540;9.268;2023-01-06T11:46:31;1.27;;;1.17;;
2320;SDS011;15376;48.540;9.268;2023-01-06T11:48:58;2.10;;;1.20;;
2320;SDS011;15376;48.540;9.268;2023-01-06T11:54:15;1.33;;;0.97;;
2320;SDS011;15376;48.540;9.268;2023-01-06T11:56:56;1.23;;;1.13;;
2320;SDS011;15376;48.540;9.268;2023-01-06T11:59:24;1.10;;;1.00;;
2320;SDS011;15376;48.540;9.268;2023-01-06T12:01:58;1.40;;;1.20;;
2320;SDS011;15376;48.540;9.268;2023-01-06T12:07:25;1.67;;;1.10;;
2320;SDS011;15376;48.540;9.268;2023-01-06T12:09:58;1.10;;;1.00;;
2320;SDS011;15376;48.540;9.268;2023-01-06T12:12:29;1.40;;;1.17;;
2320;SDS011;15376;48.540;9.268;2023-01-06T12:14:55;1.30;;;1.20;;
2320;SDS011;15376;48.540;9.268;2023-01-06T12:17:38;1.53;;;1.33;;
2320;SDS011;15376;48.540;9.268;2023-01-06T12:25:21;1.20;;;1.10;;
2320;SDS011;15376;48.540;9.268;2023-01-06T12:27:52;2.60;;;1.27;;
2320;SDS011;15376;48.540;9.268;2023-01-06T12:30:26;1.77;;;1.20;;
2320;SDS011;15376;48.540;9.268;2023-01-06T12:32:57;1.97;;;1.20;;
2320;SDS011;15376;48.540;9.268;2023-01-06T12:35:27;1.30;;;1.20;;
2320;SDS011;15376;48.540;9.268;2023-01-06T12:38:02;1.43;;;1.33;;
2320;SDS011;15376;48.540;9.268;2023-01-06T12:40:40;1.30;;;1.20;;
2320;SDS011;15376;48.540;9.268;2023-01-06T12:43:16;2.03;;;1.50;;
2320;SDS011;15376;48.540;9.268;2023-01-06T12:51:17;0.90;;;0.80;;
2320;SDS011;15376;48.540;9.268;2023-01-06T12:59:42;0.80;;;0.70;;
2320;SDS011;15376;48.540;9.268;2023-01-06T13:05:28;1.00;;;0.90;;
2320;SDS011;15376;48.540;9.268;2023-01-06T13:16:32;1.00;;;0.90;;
2320;SDS011;15376;48.540;9.268;2023-01-06T13:21:29;1.10;;;1.00;;
2320;SDS011;15376;48.540;9.268;2023-01-06T13:27:21;1.20;;;1.10;;
2320;SDS011;15376;48.540;9.268;2023-01-06T13:33:12;1.20;;;1.10;;
2320;SDS011;15376;48.540;9.268;2023-01-06T13:41:14;1.00;;;0.90;;
2320;SDS011;15376;48.540;9.268;2023-01-06T13:43:42;1.00;;;0.90;;
2320;SDS011;15376;48.540;9.268;2023-01-06T13:46:12;1.00;;;0.80;;
2320;SDS011;15376;48.540;9.268;2023-01-06T13:48:45;1.83;;;0.90;;
2320;SDS011;15376;48.540;9.268;2023-01-06T13:51:15;1.00;;;0.90;;
2320;SDS011;15376;48.540;9.268;2023-01-06T13:53:43;2.30;;;1.00;;
2320;SDS011;15376;48.540;9.268;2023-01-06T13:58:39;1.27;;;1.00;;
2320;SDS011;15376;48.540;9.268;2023-01-06T14:03:43;1.07;;;0.97;;
2320;SDS011;15376;48.540;9.268;2023-01-06T14:06:12;0.90;;;0.80;;
2320;SDS011;15376;48.540;9.268;2023-01-06T14:08:38;1.10;;;1.00;;
2320;SDS011;15376;48.540;9.268;2023-01-06T14:11:23;0.97;;;0.80;;
2320;SDS011;15376;48.540;9.268;2023-01-06T14:13:54;2.10;;;1.23;;
2320;SDS011;15376;48.540;9.268;2023-01-06T14:16:40;1.70;;;1.40;;
2320;SDS011;15376;48.540;9.268;2023-01-06T14:19:08;1.27;;;1.13;;
2320;SDS011;15376;48.540;9.268;2023-01-06T14:21:42;1.47;;;1.27;;
2320;SDS011;15376;48.540;9.268;2023-01-06T14:24:20;1.20;;;0.80;;
2320;SDS011;15376;48.540;9.268;2023-01-06T14:27:00;3.87;;;1.37;;
2320;SDS011;15376;48.540;9.268;2023-01-06T14:34:56;1.33;;;1.00;;
2320;SDS011;15376;48.540;9.268;2023-01-06T14:37:33;2.40;;;1.20;;
2320;SDS011;15376;48.540;9.268;2023-01-06T14:40:05;1.10;;;1.00;;
2320;SDS011;15376;48.540;9.268;2023-01-06T14:42:41;1.40;;;1.10;;
2320;SDS011;15376;48.540;9.268;2023-01-06T14:45:11;1.10;;;0.90;;
2320;SDS011;15376;48.540;9.268;2023-01-06T14:47:48;1.00;;;0.90;;
2320;SDS011;15376;48.540;9.268;2023-01-06T14:50:19;1.10;;;1.00;;
2320;SDS011;15376;48.540;9.268;2023-01-06T14:52:48;1.10;;;0.87;;
2320;SDS011;15376;48.540;9.268;2023-01-06T14:55:20;1.10;;;1.00;;
2320;SDS011;15376;48.540;9.268;2023-01-06T14:57:49;0.97;;;0.87;;
2320;SDS011;15376;48.540;9.268;2023-01-06T15:00:21;1.20;;;1.10;;
2320;SDS011;15376;48.540;9.268;2023-01-06T15:05:22;1.00;;;0.90;;
2320;SDS011;15376;48.540;9.268;2023-01-06T15:07:58;0.90;;;0.80;;
2320;SDS011;15376;48.540;9.268;2023-01-06T15:10:38;1.53;;;0.93;;
2320;SDS011;15376;48.540;9.268;2023-01-06T15:13:27;1.60;;;1.30;;
2320;SDS011;15376;48.540;9.268;2023-01-06T15:18:30;1.37;;;1.27;;
2320;SDS011;15376;48.540;9.268;2023-01-06T15:20:57;0.93;;;0.83;;
2320;SDS011;15376;48.540;9.268;2023-01-06T15:23:23;1.10;;;1.00;;
2320;SDS011;15376;48.540;9.268;2023-01-06T15:25:50;1.83;;;1.20;;
2320;SDS011;15376;48.540;9.268;2023-01-06T15:28:29;1.27;;;1.10;;
2320;SDS011;15376;48.540;9.268;2023-01-06T15:30:57;2.77;;;1.50;;
2320;SDS011;15376;48.540;9.268;2023-01-06T15:33:23;1.10;;;1.00;;
2320;SDS011;15376;48.540;9.268;2023-01-06T15:35:51;3.20;;;1.20;;
2320;SDS011;15376;48.540;9.268;2023-01-06T15:40:46;1.20;;;1.10;;
2320;SDS011;15376;48.540;9.268;2023-01-06T15:43:13;1.10;;;1.00;;
2320;SDS011;15376;48.540;9.268;2023-01-06T15:45:39;1.20;;;1.10;;
2320;SDS011;15376;48.540;9.268;2023-01-06T15:48:08;1.10;;;1.00;;
2320;SDS011;15376;48.540;9.268;2023-01-06T15:50:36;1.23;;;1.13;;
2320;SDS011;15376;48.540;9.268;2023-01-06T15:53:02;2.90;;;2.57;;
2320;SDS011;15376;48.540;9.268;2023-01-06T15:55:34;4.17;;;1.97;;
2320;SDS011;15376;48.540;9.268;2023-01-06T16:00:57;2.70;;;2.30;;
2320;SDS011;15376;48.540;9.268;2023-01-06T16:03:26;2.70;;;1.40;;
2320;SDS011;15376;48.540;9.268;2023-01-06T16:08:31;1.23;;;1.13;;
2320;SDS011;15376;48.540;9.268;2023-01-06T16:13:40;2.27;;;2.03;;
2320;SDS011;15376;48.540;9.268;2023-01-06T16:18:38;2.67;;;1.43;;
2320;SDS011;15376;48.540;9.268;2023-01-06T16:21:14;1.70;;;1.40;;
2320;SDS011;15376;48.540;9.268;2023-01-06T16:23:41;1.40;;;1.30;;
2320;SDS011;15376;48.540;9.268;2023-01-06T16:26:13;1.40;;;1.30;;
2320;SDS011;15376;48.540;9.268;2023-01-06T16:28:46;2.07;;;1.97;;
2320;SDS011;15376;48.540;9.268;2023-01-06T16:31:14;2.50;;;2.30;;
2320;SDS011;15376;48.540;9.268;2023-01-06T16:34:01;2.40;;;2.20;;
2320;SDS011;15376;48.540;9.268;2023-01-06T16:36:39;2.20;;;2.00;;
2320;SDS011;15376;48.540;9.268;2023-01-06T16:39:04;2.63;;;2.43;;
2320;SDS011;15376;48.540;9.268;2023-01-06T16:41:30;3.47;;;3.17;;
2320;SDS011;15376;48.540;9.268;2023-01-06T16:43:56;2.60;;;2.40;;
2320;SDS011;15376;48.540;9.268;2023-01-06T16:46:21;2.80;;;2.50;;
2320;SDS011;15376;48.540;9.268;2023-01-06T16:48:51;2.87;;;2.67;;
2320;SDS011;15376;48.540;9.268;2023-01-06T16:51:18;2.73;;;2.27;;
2320;SDS011;15376;48.540;9.268;2023-01-06T16:53:44;2.47;;;2.27;;
2320;SDS011;15376;48.540;9.268;2023-01-06T16:56:18;2.03;;;1.80;;
2320;SDS011;15376;48.540;9.268;2023-01-06T16:58:46;2.53;;;2.33;;
2320;SDS011;15376;48.540;9.268;2023-01-06T17:01:20;3.20;;;3.00;;
2320;SDS011;15376;48.540;9.268;2023-01-06T17:03:55;2.87;;;2.67;;
2320;SDS011;15376;48.540;9.268;2023-01-06T17:06:23;7.07;;;5.67;;
2320;SDS011;15376;48.540;9.268;2023-01-06T17:08:50;3.70;;;3.40;;
2320;SDS011;15376;48.540;9.268;2023-01-06T17:11:19;3.67;;;3.37;;
2320;SDS011;15376;48.540;9.268;2023-01-06T17:13:53;2.90;;;2.60;;
2320;SDS011;15376;48.540;9.268;2023-01-06T17:16:21;2.23;;;2.03;;
2320;SDS011;15376;48.540;9.268;2023-01-06T17:19:01;2.50;;;2.30;;
2320;SDS011;15376;48.540;9.268;2023-01-06T17:21:38;2.10;;;1.73;;
2320;SDS011;15376;48.540;9.268;2023-01-06T17:26:32;2.33;;;2.13;;
2320;SDS011;15376;48.540;9.268;2023-01-06T17:28:58;2.17;;;2.07;;
2320;SDS011;15376;48.540;9.268;2023-01-06T17:33:53;3.33;;;3.00;;
2320;SDS011;15376;48.540;9.268;2023-01-06T17:36:21;6.10;;;5.50;;
2320;SDS011;15376;48.540;9.268;2023-01-06T17:38:49;5.70;;;4.37;;
2320;SDS011;15376;48.540;9.268;2023-01-06T17:41:16;7.77;;;4.80;;
2320;SDS011;15376;48.540;9.268;2023-01-06T17:43:42;4.67;;;4.27;;
2320;SDS011;15376;48.540;9.268;2023-01-06T17:46:21;5.20;;;4.53;;
2320;SDS011;15376;48.540;9.268;2023-01-06T17:49:39;4.63;;;4.00;;
2320;SDS011;15376;48.540;9.268;2023-01-06T17:51:46;7.10;;;5.30;;